• Join FlightAware (Why Join?)
  • Login
  • US Flag 
01:45AM EST


 

Airport Tracker/Info


-or-


 

Live Flight TrackerFlight Track Log ✈ SWA943 ✈ 24-Aug-2013 ✈ KBOS - KDEN

Flight Track Log - Related Links

Times and Time Zones

All times are in EDT time to prevent confusion due to time zone crossing. See the SWA943 flight status page for this flight to view local times or setup timezone preferences in your user account.

Time Position Orientation Groundspeed Altitude Reporting Facility
EDT Latitude Longitude Course Direction KTS MPH feet Rate Location/Type
03:02PM 42.3667 -70.9667 71° East 183 211 1,100  Level KA90
03:03PM 42.3833 -70.9000 71° East 221 254 3,500 2,640 Climbing KA90
03:04PM 42.4172 -70.7886 68° East 252 290 7,700 3,060 Climbing Boston Center
03:05PM 42.4869 -70.7806 North 279 321 10,800 2,640 Climbing Boston Center
03:06PM 42.5536 -70.8692 316° Northwest 341 392 13,100 2,700 Climbing Boston Center
03:07PM 42.6183 -70.9836 308° West 357 411 16,500 2,640 Climbing Boston Center
03:08PM 42.6803 -71.0939 307° West 367 422 18,600 2,040 Climbing Boston Center
03:09PM 42.7336 -71.2011 304° West 382 440 20,700 2,160 Climbing Boston Center
03:10PM 42.7706 -71.3447 289° West 401 461 23,000 2,220 Climbing Boston Center
03:11PM 42.8208 -71.5183 292° West 411 473 25,300 1,860 Climbing Boston Center
03:12PM 42.8611 -71.6564 292° West 426 490 26,900 1,620 Climbing Boston Center
03:13PM 42.9067 -71.8092 292° West 436 502 28,600 1,740 Climbing Boston Center
03:14PM 42.9483 -71.9650 290° West 441 507 30,600 1,800 Climbing Boston Center
03:15PM 42.9714 -72.1247 281° West 433 498 32,400 1,680 Climbing Boston Center
03:16PM 42.9967 -72.3006 281° West 433 498 34,100 1,560 Climbing Boston Center
03:17PM 43.0167 -72.4583 280° West 427 491 35,600 900 Climbing Boston Center
03:18PM 43.0419 -72.6411 281° West 422 486 36,000 180 Climbing Boston Center
03:20PM 43.0611 -72.7722 281° West 421 484 36,000  Level Boston Center
03:21PM 43.0869 -72.9608 281° West 421 484 36,000  Level Boston Center
03:22PM 43.1058 -73.0950 281° West 418 481 36,000  Level Boston Center
03:23PM 43.1261 -73.2514 280° West 419 482 36,000  Level Boston Center
03:24PM 43.1467 -73.4311 279° West 419 482 36,000  Level Boston Center
03:25PM 43.1383 -73.5953 266° West 433 498 36,000  Level Boston Center
03:26PM 43.1303 -73.7492 266° West 429 494 36,000  Level Boston Center
03:27PM 43.1214 -73.9128 266° West 431 496 36,000  Level Boston Center
03:28PM 43.1089 -74.1119 265° West 437 503 36,000  Level Boston Center
03:29PM 43.0981 -74.2769 265° West 436 502 36,000  Level Boston Center
03:30PM 43.0883 -74.4419 265° West 435 501 36,000  Level Boston Center
03:31PM 43.0775 -74.6067 265° West 435 501 36,000  Level Boston Center
03:32PM 43.0658 -74.7711 265° West 432 497 36,000  Level Boston Center
03:33PM 43.0358 -74.9339 256° West 438 504 36,000  Level Boston Center
03:34PM 43.0064 -75.0983 256° West 440 506 36,000  Level Boston Center
03:35PM 42.9761 -75.2606 256° West 436 502 36,000  Level Boston Center
03:36PM 42.9464 -75.4219 256° West 437 503 36,000  Level Boston Center
03:37PM 42.9169 -75.5831 256° West 436 502 36,000  Level Boston Center
03:38PM 42.8864 -75.7447 256° West 438 504 36,000  Level Boston Center
03:39PM 42.8494 -75.9392 256° West 440 506 36,000  Level Boston Center
03:40PM 42.8194 -76.1003 256° West 439 505 36,000  Level Boston Center
03:41PM 42.7878 -76.2617 255° West 441 507 36,000  Level Boston Center
03:42PM 42.7589 -76.4047 255° West 438 504 36,000  Level Boston Center
03:43PM 42.7281 -76.5647 255° West 439 505 36,000  Level Boston Center
03:44PM 42.6894 -76.7561 255° West 438 504 36,000  Level Boston Center
03:45PM 42.6578 -76.9161 255° West 438 504 36,000  Level Boston Center
03:46PM 42.6256 -77.0778 255° West 443 510 36,000  Level Boston Center
03:47PM 42.5917 -77.2367 254° West 442 509 36,000  Level Cleveland Center
03:48PM 42.5583 -77.3997 255° West 444 511 36,000  Level Cleveland Center
03:49PM 42.5208 -77.5750 254° West 444 511 36,000  Level Cleveland Center
03:50PM 42.4964 -77.7378 259° West 440 506 36,000  Level Cleveland Center
03:51PM 42.4953 -77.8956 270° West 431 496 36,000  Level Cleveland Center
03:53PM 42.4969 -78.0899 271° West  Level FlightAware Approximate
03:53PM 42.4950 -78.2528 271° West 430 495 36,000  Level Cleveland Center
03:54PM 42.4933 -78.4156 269° West 432 497 36,000  Level Cleveland Center
03:55PM 42.4939 -78.5775 270° West 433 498 36,000  Level Cleveland Center
03:56PM 42.4933 -78.7397 270° West 431 496 36,000  Level Cleveland Center
03:57PM 42.4917 -78.9011 269° West 430 495 36,000 480 Level Cleveland Center
03:59PM 42.4894 -79.0967 269° West 433 498 37,100 960 Climbing Cleveland Center
04:00PM 42.4872 -79.2606 269° West 433 498 38,000 420 Climbing Cleveland Center
04:01PM 42.4853 -79.4225 269° West 431 496 38,000  Level Cleveland Center
04:02PM 42.4828 -79.5850 269° West 434 499 38,000  Level Cleveland Center
04:03PM 42.4800 -79.7481 269° West 433 498 38,000  Level Cleveland Center
04:04PM 42.4769 -79.9092 269° West 430 495 38,000  Level Cleveland Center
04:05PM 42.4719 -80.0933 268° West 433 498 38,000  Level Cleveland Center
04:06PM 42.4689 -80.2561 269° West 431 496 38,000  Level Cleveland Center
04:07PM 42.4647 -80.4172 268° West 427 491 38,000  Level Cleveland Center
04:08PM 42.4628 -80.5800 269° West 430 495 38,000  Level Cleveland Center
04:09PM 42.4578 -80.7733 268° West 439 505 38,000  Level Cleveland Center
04:10PM 42.4536 -80.9364 268° West 435 501 38,000  Level Cleveland Center
04:11PM 42.4483 -81.1014 268° West 436 502 38,000  Level Cleveland Center
04:12PM 42.4444 -81.2675 268° West 440 506 38,000  Level Cleveland Center
04:13PM 42.4392 -81.4339 268° West 439 505 38,000  Level Cleveland Center
04:14PM 42.4339 -81.6019 268° West 444 511 38,000  Level Cleveland Center
04:15PM 42.4267 -81.7961 267° West 442 509 38,000  Level Cleveland Center
04:16PM 42.4214 -81.9600 268° West 436 502 38,000  Level Cleveland Center
04:17PM 42.4156 -82.1239 267° West 436 502 38,000  Level Cleveland Center
04:18PM 42.4103 -82.2733 267° West 435 501 38,000  Level Cleveland Center
04:19PM 42.4025 -82.4675 267° West 433 498 38,000  Level Cleveland Center
04:20PM 42.3950 -82.6297 266° West 433 498 38,000  Level Cleveland Center
04:21PM 42.3892 -82.7914 267° West 433 498 38,000  Level Cleveland Center
04:22PM 42.3811 -82.9542 266° West 435 501 38,000  Level Cleveland Center
04:23PM 42.3747 -83.1158 267° West 434 499 38,000  Level Cleveland Center
04:24PM 42.3675 -83.2958 267° West 431 496 38,000  Level Cleveland Center
04:25PM 42.3592 -83.4614 266° West 435 501 38,000  Level Cleveland Center
04:26PM 42.3506 -83.6275 266° West 441 507 38,000  Level Cleveland Center
04:27PM 42.3422 -83.7881 266° West 435 501 38,000  Level Cleveland Center
04:29PM 42.3339 -83.9500 266° West 435 501 38,000  Level Cleveland Center
04:30PM 42.3239 -84.1436 266° West 434 499 38,000  Level Cleveland Center
04:31PM 42.3158 -84.3056 266° West 434 499 38,000  Level Cleveland Center
04:32PM 42.3069 -84.4675 266° West 435 501 38,000  Level Cleveland Center
04:33PM 42.2969 -84.6308 265° West 439 505 38,000  Level Cleveland Center
04:34PM 42.2858 -84.8164 265° West 443 510 38,000  Level Chicago Center
04:35PM 42.2758 -84.9844 265° West 448 516 38,000  Level Chicago Center
04:36PM 42.2650 -85.1522 265° West 449 517 38,000  Level Chicago Center
04:37PM 42.2539 -85.3225 265° West 453 521 38,000  Level Chicago Center
04:38PM 42.2392 -85.5261 264° West 454 522 38,000  Level Chicago Center
04:39PM 42.2300 -85.6922 266° West 453 521 38,000  Level Chicago Center
04:40PM 42.2164 -85.8636 264° West 451 519 38,000  Level Chicago Center
04:41PM 42.2036 -86.0492 265° West 458 527 38,000  Level Chicago Center
04:42PM 42.1914 -86.2183 264° West 456 525 38,000  Level Chicago Center
04:43PM 42.1781 -86.3869 264° West 456 525 38,000  Level Chicago Center
04:44PM 42.1664 -86.5553 265° West 453 521 38,000  Level Chicago Center
04:45PM 42.1533 -86.7222 264° West 449 517 38,000  Level Chicago Center
04:46PM 42.1375 -86.9211 264° West 450 518 38,000  Level Chicago Center
04:47PM 42.1244 -87.0867 264° West 449 517 38,000  Level Chicago Center
04:48PM 42.1108 -87.2506 264° West 446 513 38,000  Level Chicago Center
04:49PM 42.0986 -87.4133 264° West 441 507 38,000  Level Chicago Center
04:50PM 42.0844 -87.5769 263° West 442 509 38,000  Level Chicago Center
04:51PM 42.0672 -87.7722 263° West 443 510 38,000  Level Chicago Center
04:52PM 42.0528 -87.9378 263° West 449 517 38,000  Level Chicago Center
04:53PM 42.0392 -88.1014 264° West 445 512 38,000  Level Chicago Center
04:54PM 42.0231 -88.2631 262° West 443 510 38,000  Level Chicago Center
04:55PM 42.0089 -88.4267 263° West 445 512 38,000  Level Chicago Center
04:56PM 41.9900 -88.6247 263° West 449 517 38,000  Level Chicago Center
04:57PM 41.9742 -88.7878 263° West 448 516 38,000  Level Chicago Center
04:59PM 41.9581 -88.9531 263° West 448 516 38,000  Level Chicago Center
05:00PM 41.9417 -89.1169 262° West 448 516 38,000  Level Chicago Center
05:01PM 41.9267 -89.2828 263° West 452 520 38,000  Level Chicago Center
05:02PM 41.9072 -89.4769 262° West 443 510 38,000  Level Chicago Center
05:03PM 41.8892 -89.6425 262° West 448 516 38,000  Level Chicago Center
05:04PM 41.8725 -89.8061 262° West 448 516 38,000  Level Chicago Center
05:05PM 41.8561 -89.9736 263° West 449 517 38,000  Level Chicago Center
05:06PM 41.8381 -90.1386 262° West 450 518 38,000  Level Chicago Center
05:07PM 41.8214 -90.3022 262° West 448 516 38,000  Level Chicago Center
05:08PM 41.8022 -90.4661 261° West 449 517 38,000  Level Chicago Center
05:09PM 41.7792 -90.6642 261° West 449 517 38,000  Level Chicago Center
05:10PM 41.7608 -90.8264 261° West 443 510 38,000  Level Chicago Center
05:11PM 41.7425 -90.9847 261° West 437 503 38,000  Level Chicago Center
05:12PM 41.7242 -91.1453 261° West 438 504 38,000  Level Chicago Center
05:13PM 41.7044 -91.3042 261° West 437 503 38,000  Level Chicago Center
05:14PM 41.6861 -91.4636 261° West 437 503 38,000  Level Chicago Center
05:15PM 41.6636 -91.6561 261° West 439 505 38,000  Level Chicago Center
05:16PM 41.6433 -91.8158 260° West 439 505 38,000  Level Chicago Center
05:17PM 41.6236 -91.9761 261° West 440 506 38,000  Level Chicago Center
05:18PM 41.6039 -92.1367 261° West 441 507 38,000  Level Chicago Center
05:19PM 41.5833 -92.2956 260° West 439 505 38,000  Level Chicago Center
05:20PM 41.5625 -92.4547 260° West 438 504 38,000  Level Chicago Center
05:21PM 41.5392 -92.6450 261° West 437 503 38,000  Level Chicago Center
05:22PM 41.5169 -92.8014 259° West 435 501 38,000  Level Chicago Center
05:23PM 41.4972 -92.9544 260° West 427 491 38,000  Level Chicago Center
05:24PM 41.4761 -93.1097 260° West 430 495 38,000  Level Chicago Center
05:25PM 41.4558 -93.2633 260° West 426 490 38,000  Level Chicago Center
05:26PM 41.4300 -93.4492 260° West 429 494 38,000  Level Chicago Center
05:27PM 41.4081 -93.6061 259° West 434 499 38,000  Level Chicago Center
05:29PM 41.3842 -93.7886 260° West 429 494 38,000  Level Minneapolis Center
05:30PM 41.3617 -93.9458 259° West 435 501 38,000  Level Minneapolis Center
05:31PM 41.3403 -94.1017 260° West 435 501 38,000  Level Minneapolis Center
05:32PM 41.3153 -94.2669 259° West 433 498 38,000  Level Minneapolis Center
05:33PM 41.2914 -94.4236 259° West 432 497 38,000  Level Minneapolis Center
05:34PM 41.2700 -94.5794 260° West 431 496 38,000  Level Minneapolis Center
05:35PM 41.2467 -94.7361 259° West 431 496 38,000  Level Minneapolis Center
05:36PM 41.2161 -94.9269 258° West 437 503 38,000  Level Minneapolis Center
05:37PM 41.1914 -95.0847 258° West 437 503 38,000  Level Minneapolis Center
05:38PM 41.1672 -95.2428 259° West 437 503 38,000  Level Minneapolis Center
05:39PM 41.1414 -95.4011 258° West 437 503 38,000  Level Minneapolis Center
05:40PM 41.1158 -95.5594 258° West 437 503 38,000  Level Minneapolis Center
05:41PM 41.0906 -95.7169 258° West 434 499 38,000  Level Minneapolis Center
05:42PM 41.0633 -95.8764 257° West 438 504 38,000  Level Minneapolis Center
05:43PM 41.0386 -96.0358 258° West 437 503 38,000  Level Minneapolis Center
05:45PM 40.9831 -96.3825 258° West 435 501 38,000  Level Minneapolis Center
05:46PM 40.9569 -96.5378 257° West 432 497 38,000  Level Minneapolis Center
05:47PM 40.9308 -96.6928 257° West 431 496 38,000  Level Minneapolis Center
05:48PM 40.9044 -96.8456 257° West 428 493 38,000  Level Minneapolis Center
05:49PM 40.8758 -96.9986 256° West 429 494 38,000  Level Minneapolis Center
05:50PM 40.8478 -97.1514 256° West 429 494 38,000  Level Minneapolis Center
05:51PM 40.8200 -97.3039 257° West 428 493 38,000  Level Minneapolis Center
05:52PM 40.7892 -97.4678 256° West 429 494 38,000  Level Minneapolis Center
05:53PM 40.7597 -97.6197 256° West 429 494 38,000  Level Minneapolis Center
05:54PM 40.7314 -97.7728 256° West 428 493 38,000  Level Minneapolis Center
05:55PM 40.6964 -97.9539 256° West 425 489 38,000  Level Minneapolis Center
05:56PM 40.6667 -98.1044 255° West 424 488 38,000  Level Minneapolis Center
05:58PM 40.6322 -98.2825 256° West 419 482 38,000  Level Minneapolis Center
05:59PM 40.6072 -98.4336 258° West 420 483 38,000  Level Minneapolis Center
06:00PM 40.6181 -98.5903 275° West 427 491 38,000  Level Minneapolis Center
06:01PM 40.6319 -98.7478 277° West 430 495 38,000  Level Minneapolis Center
06:02PM 40.6461 -98.9056 277° West 431 496 38,000 -540 Level Minneapolis Center
06:03PM 40.6589 -99.0633 276° West 431 496 37,000 -1,020 Descending Minneapolis Center
06:04PM 40.6728 -99.2161 277° West 424 488 36,000 -540 Descending Denver Center
06:05PM 40.6856 -99.3667 276° West 414 476 36,000  Level Denver Center
06:06PM 40.7000 -99.5478 276° West 414 476 36,000  Level Denver Center
06:07PM 40.7125 -99.6994 276° West 414 476 36,000  Level Denver Center
06:08PM 40.7247 -99.8517 276° West 416 479 36,000  Level Denver Center
06:09PM 40.7367 -100.0097 276° West 416 479 36,000  Level Denver Center
06:10PM 40.7486 -100.1547 276° West 416 479 36,000  Level Denver Center
06:11PM 40.7617 -100.3250 276° West 418 481 36,000  Level Denver Center
06:12PM 40.7728 -100.4714 276° West 420 483 36,000  Level Denver Center
06:13PM 40.7831 -100.6186 275° West 420 483 36,000  Level Denver Center
06:14PM 40.7644 -100.7717 261° West 433 498 36,000  Level Denver Center
06:15PM 40.7386 -100.9408 259° West 420 483 36,000  Level Denver Center
06:16PM 40.7158 -101.0817 258° West 411 473 36,000  Level Denver Center
06:17PM 40.6867 -101.2481 257° West 416 479 36,000  Level Denver Center
06:18PM 40.6614 -101.3869 257° West 410 472 36,000 -300 Level Denver Center
06:19PM 40.6328 -101.5500 257° West 410 472 35,400 -840 Descending Denver Center
06:20PM 40.6083 -101.6889 257° West 407 468 34,400 -960 Descending Denver Center
06:21PM 40.5836 -101.8250 257° West 402 463 33,500 -1,080 Descending Denver Center
06:22PM 40.5558 -101.9831 257° West 398 458 32,300 -1,080 Descending Denver Center
06:23PM 40.5319 -102.1153 257° West 391 450 31,300 -1,080 Descending Denver Center
06:24PM 40.5028 -102.2664 256° West 383 441 30,200 -1,080 Descending Denver Center
06:25PM 40.4792 -102.3967 257° West 383 441 29,200 -1,020 Descending Denver Center
06:26PM 40.4519 -102.5428 256° West 372 428 28,100 -1,080 Descending Denver Center
06:27PM 40.4283 -102.6672 256° West 368 423 27,100 -960 Descending Denver Center
06:28PM 40.4064 -102.7875 257° West 368 423 26,200 -960 Descending Denver Center
06:29PM 40.3822 -102.9131 256° West 358 412 25,200 -1,080 Descending Denver Center
06:30PM 40.3550 -103.0583 256° West 345 397 24,000 -1,080 Descending Denver Center
06:31PM 40.3322 -103.1775 256° West 340 391 23,000 -1,020 Descending Denver Center
06:32PM 40.3089 -103.2953 255° West 335 386 22,000 -1,020 Descending Denver Center
06:34PM 40.2864 -103.4133 256° West 334 384 21,000 -1,020 Descending Denver Center
06:35PM 40.2642 -103.5264 256° West 323 372 20,000 -1,020 Descending Denver Center
06:36PM 40.2417 -103.6392 255° West 322 371 19,000 -960 Descending Denver Center
06:37PM 40.2197 -103.7486 255° West 334 384 18,100 -1,260 Descending Denver Center
06:38PM 40.1864 -103.8844 252° West 322 371 16,400 -1,620 Descending Denver Center
06:39PM 40.1358 -103.9764 234° Southwest 313 360 14,800 -1,500 Descending Denver Center
06:40PM 40.0781 -104.0600 228° Southwest 303 349 13,400 -1,620 Descending Denver Center
06:41PM 40.0194 -104.1464 228° Southwest 303 349 11,600 -1,680 Descending Denver Center
06:42PM 39.9658 -104.2286 230° Southwest 299 344 10,000 -1,500 Descending Denver Center
06:43PM 39.9314 -104.3378 248° West 299 344 8,500 -1,260 Descending Denver Center
06:44PM 39.9000 -104.4333 247° West 285 328 7,600 -780 Descending Denver TRACON
06:45PM 39.8833 -104.5167 255° West 219 252 7,000 -780 Descending Denver TRACON
06:46PM 39.8833 -104.5667 270° West 158 182 6,000 -840 Descending Denver TRACON
06:47PM 39.8772 -104.6297 263° West 151 174 5,300 -660 Descending Denver Center
06:49PM 39.8617 -104.6732 180° South  Level Estimated
06:56PM 39.8617 -104.6732 North  Level Estimated
06:57PM 39.8617 -104.6732 North  Level Estimated
06:58PM 39.8617 -104.6732 North  Level Estimated